Vallensbaek, Denmark
Current Conditions -  °F | °C
As of 11:20 PM on Saturday 25 Oct 2014 (Local Time) from EKRK Reporting Station
Moderate Fog Moderate Fog  
Wind Chill: 46°   Ceiling: Unl
Heat Index: 48°   Visibility: 0.06mi
Dew Point: 48°   Wind: 6mph
Humidity: 100%   Direction: 210°SSW
Pressure: 30.06"   Gusts: NA
Location:  55.63°N, 12.37°E
Report Text: EKRK 252120Z AUTO 21005KT 0100NDV R11/P1500N R29/0650V0900NFG FEW001/// 09/09 Q1018
Loading
Personal Weather Stations






























Interactive Weather Map
Tropical Storm Tracking
New forecast layout! Learn more

10-Day Weather Forecast

Advertisements
Track Severe Weather on mobile